sensor_id;sensor_type;location;lat;lon;timestamp;P1;P2;P0
69224;PMS1003;56333;51.306;17.056;2024-02-14T00:03:17;41.30;19.10;
69224;PMS1003;56333;51.306;17.056;2024-02-14T00:04:47;35.00;26.00;
69224;PMS1003;56333;51.306;17.056;2024-02-14T00:06:15;40.40;17.90;
69224;PMS1003;56333;51.306;17.056;2024-02-14T00:07:45;41.60;17.50;
69224;PMS1003;56333;51.306;17.056;2024-02-14T00:09:13;36.40;17.20;
69224;PMS1003;56333;51.306;17.056;2024-02-14T00:10:42;33.70;24.30;
69224;PMS1003;56333;51.306;17.056;2024-02-14T00:12:12;38.80;28.10;
69224;PMS1003;56333;51.306;17.056;2024-02-14T00:13:40;37.90;27.60;
69224;PMS1003;56333;51.306;17.056;2024-02-14T00:15:10;35.60;26.70;
69224;PMS1003;56333;51.306;17.056;2024-02-14T00:16:39;39.00;17.80;
69224;PMS1003;56333;51.306;17.056;2024-02-14T00:18:07;39.70;18.30;
69224;PMS1003;56333;51.306;17.056;2024-02-14T00:19:36;38.20;28.20;
69224;PMS1003;56333;51.306;17.056;2024-02-14T00:21:05;37.30;28.20;
69224;PMS1003;56333;51.306;17.056;2024-02-14T00:22:34;39.50;17.70;
69224;PMS1003;56333;51.306;17.056;2024-02-14T00:24:03;38.40;18.40;
69224;PMS1003;56333;51.306;17.056;2024-02-14T00:25:33;38.00;18.40;
69224;PMS1003;56333;51.306;17.056;2024-02-14T00:27:01;29.30;23.50;
69224;PMS1003;56333;51.306;17.056;2024-02-14T00:28:30;43.90;19.60;
69224;PMS1003;56333;51.306;17.056;2024-02-14T00:29:59;44.40;19.30;
69224;PMS1003;56333;51.306;17.056;2024-02-14T00:31:29;41.00;20.40;
69224;PMS1003;56333;51.306;17.056;2024-02-14T00:32:57;35.10;26.20;
69224;PMS1003;56333;51.306;17.056;2024-02-14T00:34:26;34.50;25.60;
69224;PMS1003;56333;51.306;17.056;2024-02-14T00:35:55;38.90;18.60;
69224;PMS1003;56333;51.306;17.056;2024-02-14T00:37:24;38.80;18.00;
69224;PMS1003;56333;51.306;17.056;2024-02-14T00:38:54;40.50;20.10;
69224;PMS1003;56333;51.306;17.056;2024-02-14T00:40:22;33.50;26.00;
69224;PMS1003;56333;51.306;17.056;2024-02-14T00:41:50;32.70;25.10;
69224;PMS1003;56333;51.306;17.056;2024-02-14T00:43:20;39.40;18.30;
69224;PMS1003;56333;51.306;17.056;2024-02-14T00:44:48;36.50;27.20;
69224;PMS1003;56333;51.306;17.056;2024-02-14T00:46:19;36.80;27.30;
69224;PMS1003;56333;51.306;17.056;2024-02-14T00:47:48;41.80;18.70;
69224;PMS1003;56333;51.306;17.056;2024-02-14T00:49:16;44.90;19.80;
69224;PMS1003;56333;51.306;17.056;2024-02-14T00:50:45;47.30;21.00;
69224;PMS1003;56333;51.306;17.056;2024-02-14T00:52:13;46.90;32.70;
69224;PMS1003;56333;51.306;17.056;2024-02-14T00:53:42;43.50;20.10;
69224;PMS1003;56333;51.306;17.056;2024-02-14T00:55:11;38.00;28.20;
69224;PMS1003;56333;51.306;17.056;2024-02-14T00:56:40;41.20;18.60;
69224;PMS1003;56333;51.306;17.056;2024-02-14T00:58:09;36.80;27.50;
69224;PMS1003;56333;51.306;17.056;2024-02-14T00:59:37;41.60;19.20;
69224;PMS1003;56333;51.306;17.056;2024-02-14T01:01:07;44.20;20.20;
69224;PMS1003;56333;51.306;17.056;2024-02-14T01:02:35;37.20;28.60;
69224;PMS1003;56333;51.306;17.056;2024-02-14T01:04:04;49.30;21.00;
69224;PMS1003;56333;51.306;17.056;2024-02-14T01:05:32;35.10;26.00;
69224;PMS1003;56333;51.306;17.056;2024-02-14T01:07:01;34.30;25.30;
69224;PMS1003;56333;51.306;17.056;2024-02-14T01:08:29;35.50;25.80;
69224;PMS1003;56333;51.306;17.056;2024-02-14T01:09:59;38.30;18.00;
69224;PMS1003;56333;51.306;17.056;2024-02-14T01:11:28;38.90;17.80;
69224;PMS1003;56333;51.306;17.056;2024-02-14T01:12:56;39.50;17.50;
69224;PMS1003;56333;51.306;17.056;2024-02-14T01:14:25;33.20;25.00;
69224;PMS1003;56333;51.306;17.056;2024-02-14T01:15:53;32.40;23.60;
69224;PMS1003;56333;51.306;17.056;2024-02-14T01:17:21;34.60;25.40;
69224;PMS1003;56333;51.306;17.056;2024-02-14T01:18:50;36.90;16.90;
69224;PMS1003;56333;51.306;17.056;2024-02-14T01:20:19;37.00;17.30;
69224;PMS1003;56333;51.306;17.056;2024-02-14T01:21:47;35.00;26.40;
69224;PMS1003;56333;51.306;17.056;2024-02-14T01:23:16;37.50;27.10;
69224;PMS1003;56333;51.306;17.056;2024-02-14T01:24:45;34.90;16.70;
69224;PMS1003;56333;51.306;17.056;2024-02-14T01:26:13;34.80;26.50;
69224;PMS1003;56333;51.306;17.056;2024-02-14T01:27:42;36.70;18.00;
69224;PMS1003;56333;51.306;17.056;2024-02-14T01:29:11;35.40;16.50;
69224;PMS1003;56333;51.306;17.056;2024-02-14T01:30:39;33.90;26.10;
69224;PMS1003;56333;51.306;17.056;2024-02-14T01:32:08;38.30;18.40;
69224;PMS1003;56333;51.306;17.056;2024-02-14T01:33:36;36.20;17.00;
69224;PMS1003;56333;51.306;17.056;2024-02-14T01:35:07;33.80;24.90;
69224;PMS1003;56333;51.306;17.056;2024-02-14T01:36:36;39.40;17.50;
69224;PMS1003;56333;51.306;17.056;2024-02-14T01:38:07;38.80;18.50;
69224;PMS1003;56333;51.306;17.056;2024-02-14T01:39:37;39.60;18.20;
69224;PMS1003;56333;51.306;17.056;2024-02-14T01:41:07;36.30;26.20;
69224;PMS1003;56333;51.306;17.056;2024-02-14T01:42:35;33.60;25.30;
69224;PMS1003;56333;51.306;17.056;2024-02-14T01:44:06;35.20;14.60;
69224;PMS1003;56333;51.306;17.056;2024-02-14T01:45:34;30.90;13.40;
69224;PMS1003;56333;51.306;17.056;2024-02-14T01:47:02;35.00;17.20;
69224;PMS1003;56333;51.306;17.056;2024-02-14T01:48:32;34.30;26.10;
69224;PMS1003;56333;51.306;17.056;2024-02-14T01:50:02;36.00;26.60;
69224;PMS1003;56333;51.306;17.056;2024-02-14T01:51:34;34.20;26.50;
69224;PMS1003;56333;51.306;17.056;2024-02-14T01:53:05;43.70;19.10;
69224;PMS1003;56333;51.306;17.056;2024-02-14T01:54:34;37.40;26.70;
69224;PMS1003;56333;51.306;17.056;2024-02-14T01:56:03;36.80;16.10;
69224;PMS1003;56333;51.306;17.056;2024-02-14T01:57:34;36.50;25.50;
69224;PMS1003;56333;51.306;17.056;2024-02-14T01:59:03;40.20;18.30;
69224;PMS1003;56333;51.306;17.056;2024-02-14T02:00:32;49.00;20.80;
69224;PMS1003;56333;51.306;17.056;2024-02-14T02:02:04;36.00;27.00;
69224;PMS1003;56333;51.306;17.056;2024-02-14T02:05:03;36.30;17.60;
69224;PMS1003;56333;51.306;17.056;2024-02-14T02:06:32;47.20;20.30;
69224;PMS1003;56333;51.306;17.056;2024-02-14T02:08:01;40.30;18.40;
69224;PMS1003;56333;51.306;17.056;2024-02-14T02:09:30;48.00;20.80;
69224;PMS1003;56333;51.306;17.056;2024-02-14T02:10:59;39.70;27.00;
69224;PMS1003;56333;51.306;17.056;2024-02-14T02:12:29;39.10;27.80;
69224;PMS1003;56333;51.306;17.056;2024-02-14T02:13:58;39.20;18.50;
69224;PMS1003;56333;51.306;17.056;2024-02-14T02:15:26;39.50;18.70;
69224;PMS1003;56333;51.306;17.056;2024-02-14T02:16:56;45.20;19.40;
69224;PMS1003;56333;51.306;17.056;2024-02-14T02:18:26;39.40;28.60;
69224;PMS1003;56333;51.306;17.056;2024-02-14T02:19:56;38.10;29.40;
69224;PMS1003;56333;51.306;17.056;2024-02-14T02:21:26;43.20;19.10;
69224;PMS1003;56333;51.306;17.056;2024-02-14T02:22:55;39.10;28.10;
69224;PMS1003;56333;51.306;17.056;2024-02-14T02:24:24;37.70;27.00;
69224;PMS1003;56333;51.306;17.056;2024-02-14T02:25:53;39.30;18.30;
69224;PMS1003;56333;51.306;17.056;2024-02-14T02:27:22;37.30;26.70;
69224;PMS1003;56333;51.306;17.056;2024-02-14T02:28:50;37.30;17.70;
69224;PMS1003;56333;51.306;17.056;2024-02-14T02:30:19;36.80;26.80;
69224;PMS1003;56333;51.306;17.056;2024-02-14T02:31:48;35.60;26.40;
69224;PMS1003;56333;51.306;17.056;2024-02-14T02:33:18;41.20;18.40;
69224;PMS1003;56333;51.306;17.056;2024-02-14T02:34:47;36.80;26.60;
69224;PMS1003;56333;51.306;17.056;2024-02-14T02:36:15;33.50;25.20;
69224;PMS1003;56333;51.306;17.056;2024-02-14T02:37:44;32.90;25.10;
69224;PMS1003;56333;51.306;17.056;2024-02-14T02:39:14;40.90;16.90;
69224;PMS1003;56333;51.306;17.056;2024-02-14T02:40:42;33.20;24.40;
69224;PMS1003;56333;51.306;17.056;2024-02-14T02:42:11;34.20;15.70;
69224;PMS1003;56333;51.306;17.056;2024-02-14T02:43:40;37.50;16.50;
69224;PMS1003;56333;51.306;17.056;2024-02-14T02:45:10;31.60;24.20;
69224;PMS1003;56333;51.306;17.056;2024-02-14T02:46:39;38.10;17.40;
69224;PMS1003;56333;51.306;17.056;2024-02-14T02:48:10;35.90;17.20;
69224;PMS1003;56333;51.306;17.056;2024-02-14T02:49:38;36.50;27.20;
69224;PMS1003;56333;51.306;17.056;2024-02-14T02:51:08;37.50;17.80;
69224;PMS1003;56333;51.306;17.056;2024-02-14T02:52:37;40.60;18.50;
69224;PMS1003;56333;51.306;17.056;2024-02-14T02:54:06;35.80;25.60;
69224;PMS1003;56333;51.306;17.056;2024-02-14T02:55:36;36.00;17.20;
69224;PMS1003;56333;51.306;17.056;2024-02-14T02:57:06;36.60;17.90;
69224;PMS1003;56333;51.306;17.056;2024-02-14T02:58:35;39.90;18.30;
69224;PMS1003;56333;51.306;17.056;2024-02-14T03:00:04;35.00;16.80;
69224;PMS1003;56333;51.306;17.056;2024-02-14T03:01:39;31.50;21.90;
69224;PMS1003;56333;51.306;17.056;2024-02-14T03:03:10;31.80;15.50;
69224;PMS1003;56333;51.306;17.056;2024-02-14T03:04:38;34.00;16.70;
69224;PMS1003;56333;51.306;17.056;2024-02-14T03:06:08;36.00;16.40;
69224;PMS1003;56333;51.306;17.056;2024-02-14T03:07:38;27.40;20.70;
69224;PMS1003;56333;51.306;17.056;2024-02-14T03:09:11;27.70;21.60;
69224;PMS1003;56333;51.306;17.056;2024-02-14T03:10:40;30.80;14.50;
69224;PMS1003;56333;51.306;17.056;2024-02-14T03:12:12;29.20;22.20;
69224;PMS1003;56333;51.306;17.056;2024-02-14T03:13:41;30.30;22.50;
69224;PMS1003;56333;51.306;17.056;2024-02-14T03:15:12;34.50;15.00;
69224;PMS1003;56333;51.306;17.056;2024-02-14T03:16:40;28.30;12.70;
69224;PMS1003;56333;51.306;17.056;2024-02-14T03:18:09;34.70;25.90;
69224;PMS1003;56333;51.306;17.056;2024-02-14T03:19:39;32.10;24.40;
69224;PMS1003;56333;51.306;17.056;2024-02-14T03:21:08;39.00;17.50;
69224;PMS1003;56333;51.306;17.056;2024-02-14T03:22:37;41.30;18.30;
69224;PMS1003;56333;51.306;17.056;2024-02-14T03:24:10;42.20;19.10;
69224;PMS1003;56333;51.306;17.056;2024-02-14T03:25:39;47.70;19.70;
69224;PMS1003;56333;51.306;17.056;2024-02-14T03:27:08;41.80;18.50;
69224;PMS1003;56333;51.306;17.056;2024-02-14T03:28:37;39.60;28.00;
69224;PMS1003;56333;51.306;17.056;2024-02-14T03:30:08;45.10;19.10;
69224;PMS1003;56333;51.306;17.056;2024-02-14T03:31:38;50.30;20.90;
69224;PMS1003;56333;51.306;17.056;2024-02-14T03:33:09;45.50;20.50;
69224;PMS1003;56333;51.306;17.056;2024-02-14T03:34:37;44.20;21.70;
69224;PMS1003;56333;51.306;17.056;2024-02-14T03:36:08;47.80;21.20;
69224;PMS1003;56333;51.306;17.056;2024-02-14T03:37:36;39.80;29.10;
69224;PMS1003;56333;51.306;17.056;2024-02-14T03:39:06;38.40;17.10;
69224;PMS1003;56333;51.306;17.056;2024-02-14T03:40:35;46.50;20.70;
69224;PMS1003;56333;51.306;17.056;2024-02-14T03:42:05;42.00;18.90;
69224;PMS1003;56333;51.306;17.056;2024-02-14T03:43:33;40.40;30.10;
69224;PMS1003;56333;51.306;17.056;2024-02-14T03:45:02;41.40;29.90;
69224;PMS1003;56333;51.306;17.056;2024-02-14T03:46:31;47.30;21.30;
69224;PMS1003;56333;51.306;17.056;2024-02-14T03:48:01;41.40;30.40;
69224;PMS1003;56333;51.306;17.056;2024-02-14T03:49:31;50.70;19.90;
69224;PMS1003;56333;51.306;17.056;2024-02-14T03:51:00;47.30;21.20;
69224;PMS1003;56333;51.306;17.056;2024-02-14T03:52:29;41.50;29.70;
69224;PMS1003;56333;51.306;17.056;2024-02-14T03:53:59;44.70;21.00;
69224;PMS1003;56333;51.306;17.056;2024-02-14T03:55:27;43.00;30.50;
69224;PMS1003;56333;51.306;17.056;2024-02-14T03:56:56;50.70;21.80;
69224;PMS1003;56333;51.306;17.056;2024-02-14T03:58:24;52.80;21.80;
69224;PMS1003;56333;51.306;17.056;2024-02-14T03:59:53;50.00;22.50;
69224;PMS1003;56333;51.306;17.056;2024-02-14T04:01:22;42.80;30.30;
69224;PMS1003;56333;51.306;17.056;2024-02-14T04:02:50;42.30;29.70;
69224;PMS1003;56333;51.306;17.056;2024-02-14T04:04:24;42.90;30.10;
69224;PMS1003;56333;51.306;17.056;2024-02-14T04:05:53;38.30;28.30;
69224;PMS1003;56333;51.306;17.056;2024-02-14T04:07:21;46.10;19.90;
69224;PMS1003;56333;51.306;17.056;2024-02-14T04:08:49;45.60;21.10;
69224;PMS1003;56333;51.306;17.056;2024-02-14T04:10:18;42.90;31.80;
69224;PMS1003;56333;51.306;17.056;2024-02-14T04:11:47;46.00;20.70;
69224;PMS1003;56333;51.306;17.056;2024-02-14T04:13:15;43.50;31.40;
69224;PMS1003;56333;51.306;17.056;2024-02-14T04:14:44;44.20;31.40;
69224;PMS1003;56333;51.306;17.056;2024-02-14T04:16:14;42.00;19.50;
69224;PMS1003;56333;51.306;17.056;2024-02-14T04:17:43;42.50;20.20;
69224;PMS1003;56333;51.306;17.056;2024-02-14T04:19:12;47.70;21.70;
69224;PMS1003;56333;51.306;17.056;2024-02-14T04:20:44;48.30;21.10;
69224;PMS1003;56333;51.306;17.056;2024-02-14T04:22:13;46.40;21.00;
69224;PMS1003;56333;51.306;17.056;2024-02-14T04:23:42;36.30;26.50;
69224;PMS1003;56333;51.306;17.056;2024-02-14T04:25:11;35.30;26.30;
69224;PMS1003;56333;51.306;17.056;2024-02-14T04:26:40;37.40;27.50;
69224;PMS1003;56333;51.306;17.056;2024-02-14T04:28:09;40.00;17.90;
69224;PMS1003;56333;51.306;17.056;2024-02-14T04:29:37;36.70;16.50;
69224;PMS1003;56333;51.306;17.056;2024-02-14T04:31:06;43.60;18.80;
69224;PMS1003;56333;51.306;17.056;2024-02-14T04:32:35;36.00;17.50;
69224;PMS1003;56333;51.306;17.056;2024-02-14T04:34:03;31.50;14.60;
69224;PMS1003;56333;51.306;17.056;2024-02-14T04:35:33;34.60;25.80;
69224;PMS1003;56333;51.306;17.056;2024-02-14T04:37:04;38.80;18.50;
69224;PMS1003;56333;51.306;17.056;2024-02-14T04:38:35;36.60;26.50;
69224;PMS1003;56333;51.306;17.056;2024-02-14T04:40:09;21.80;10.60;
69224;PMS1003;56333;51.306;17.056;2024-02-14T04:41:39;36.00;26.80;
69224;PMS1003;56333;51.306;17.056;2024-02-14T04:43:08;39.30;28.40;
69224;PMS1003;56333;51.306;17.056;2024-02-14T04:44:37;33.90;15.30;
69224;PMS1003;56333;51.306;17.056;2024-02-14T04:46:06;38.10;16.60;
69224;PMS1003;56333;51.306;17.056;2024-02-14T04:47:35;34.30;16.10;
69224;PMS1003;56333;51.306;17.056;2024-02-14T04:49:03;39.20;29.10;
69224;PMS1003;56333;51.306;17.056;2024-02-14T04:50:32;40.40;29.10;
69224;PMS1003;56333;51.306;17.056;2024-02-14T04:52:00;36.40;16.60;
69224;PMS1003;56333;51.306;17.056;2024-02-14T04:53:29;32.50;16.60;
69224;PMS1003;56333;51.306;17.056;2024-02-14T04:54:58;39.50;29.60;
69224;PMS1003;56333;51.306;17.056;2024-02-14T04:56:26;45.00;21.00;
69224;PMS1003;56333;51.306;17.056;2024-02-14T04:57:54;40.70;21.20;
69224;PMS1003;56333;51.306;17.056;2024-02-14T04:59:25;45.40;32.20;
69224;PMS1003;56333;51.306;17.056;2024-02-14T05:00:53;44.80;31.20;
69224;PMS1003;56333;51.306;17.056;2024-02-14T05:02:24;49.20;22.90;
69224;PMS1003;56333;51.306;17.056;2024-02-14T05:03:53;52.70;24.60;
69224;PMS1003;56333;51.306;17.056;2024-02-14T05:05:22;56.60;25.80;
69224;PMS1003;56333;51.306;17.056;2024-02-14T05:06:50;53.60;25.40;
69224;PMS1003;56333;51.306;17.056;2024-02-14T05:08:19;47.30;35.30;
69224;PMS1003;56333;51.306;17.056;2024-02-14T05:09:47;47.30;34.40;
69224;PMS1003;56333;51.306;17.056;2024-02-14T05:11:18;41.40;19.30;
69224;PMS1003;56333;51.306;17.056;2024-02-14T05:12:46;43.30;18.80;
69224;PMS1003;56333;51.306;17.056;2024-02-14T05:14:15;48.10;34.20;
69224;PMS1003;56333;51.306;17.056;2024-02-14T05:15:43;58.20;23.70;
69224;PMS1003;56333;51.306;17.056;2024-02-14T05:17:12;44.00;21.60;
69224;PMS1003;56333;51.306;17.056;2024-02-14T05:18:41;51.40;38.00;
69224;PMS1003;56333;51.306;17.056;2024-02-14T05:20:11;49.30;37.00;
69224;PMS1003;56333;51.306;17.056;2024-02-14T05:21:41;45.30;19.60;
69224;PMS1003;56333;51.306;17.056;2024-02-14T05:23:09;40.30;18.70;
69224;PMS1003;56333;51.306;17.056;2024-02-14T05:24:38;41.70;19.40;
69224;PMS1003;56333;51.306;17.056;2024-02-14T05:26:07;52.90;36.60;
69224;PMS1003;56333;51.306;17.056;2024-02-14T05:27:36;51.80;37.40;
69224;PMS1003;56333;51.306;17.056;2024-02-14T05:29:05;48.40;23.00;
69224;PMS1003;56333;51.306;17.056;2024-02-14T05:30:34;61.80;26.70;
69224;PMS1003;56333;51.306;17.056;2024-02-14T05:32:05;54.00;38.60;
69224;PMS1003;56333;51.306;17.056;2024-02-14T05:33:36;56.90;39.10;
69224;PMS1003;56333;51.306;17.056;2024-02-14T05:35:05;53.00;37.90;
69224;PMS1003;56333;51.306;17.056;2024-02-14T05:36:35;51.00;24.20;
69224;PMS1003;56333;51.306;17.056;2024-02-14T05:38:04;57.80;27.70;
69224;PMS1003;56333;51.306;17.056;2024-02-14T05:39:33;53.60;38.90;
69224;PMS1003;56333;51.306;17.056;2024-02-14T05:41:02;50.70;38.90;
69224;PMS1003;56333;51.306;17.056;2024-02-14T05:42:34;56.00;26.40;
69224;PMS1003;56333;51.306;17.056;2024-02-14T05:44:02;51.40;23.60;
69224;PMS1003;56333;51.306;17.056;2024-02-14T05:45:31;49.60;36.50;
69224;PMS1003;56333;51.306;17.056;2024-02-14T05:47:00;50.50;36.20;
69224;PMS1003;56333;51.306;17.056;2024-02-14T05:48:28;55.10;23.20;
69224;PMS1003;56333;51.306;17.056;2024-02-14T05:49:57;49.80;35.80;
69224;PMS1003;56333;51.306;17.056;2024-02-14T05:51:25;47.50;34.60;
69224;PMS1003;56333;51.306;17.056;2024-02-14T05:52:54;53.50;22.80;
69224;PMS1003;56333;51.306;17.056;2024-02-14T05:54:23;46.80;33.40;
69224;PMS1003;56333;51.306;17.056;2024-02-14T05:55:52;52.10;23.50;
69224;PMS1003;56333;51.306;17.056;2024-02-14T05:57:20;56.80;42.90;
69224;PMS1003;56333;51.306;17.056;2024-02-14T05:58:49;54.20;24.60;
69224;PMS1003;56333;51.306;17.056;2024-02-14T06:00:20;46.00;22.20;
69224;PMS1003;56333;51.306;17.056;2024-02-14T06:01:48;45.80;20.70;
69224;PMS1003;56333;51.306;17.056;2024-02-14T06:03:17;53.40;23.70;
69224;PMS1003;56333;51.306;17.056;2024-02-14T06:04:45;47.10;20.40;
69224;PMS1003;56333;51.306;17.056;2024-02-14T06:06:13;43.00;20.50;
69224;PMS1003;56333;51.306;17.056;2024-02-14T06:07:43;42.60;30.40;
69224;PMS1003;56333;51.306;17.056;2024-02-14T06:09:12;43.30;30.10;
69224;PMS1003;56333;51.306;17.056;2024-02-14T06:10:40;43.20;32.60;
69224;PMS1003;56333;51.306;17.056;2024-02-14T06:12:09;42.20;31.70;
69224;PMS1003;56333;51.306;17.056;2024-02-14T06:13:38;41.50;20.20;
69224;PMS1003;56333;51.306;17.056;2024-02-14T06:15:08;44.00;20.70;
69224;PMS1003;56333;51.306;17.056;2024-02-14T06:16:37;46.50;34.20;
69224;PMS1003;56333;51.306;17.056;2024-02-14T06:18:06;45.00;33.30;
69224;PMS1003;56333;51.306;17.056;2024-02-14T06:19:34;38.00;18.70;
69224;PMS1003;56333;51.306;17.056;2024-02-14T06:21:04;40.50;30.30;
69224;PMS1003;56333;51.306;17.056;2024-02-14T06:22:33;36.60;18.20;
69224;PMS1003;56333;51.306;17.056;2024-02-14T06:24:02;46.40;21.90;
69224;PMS1003;56333;51.306;17.056;2024-02-14T06:25:32;39.10;29.30;
69224;PMS1003;56333;51.306;17.056;2024-02-14T06:27:00;38.20;29.10;
69224;PMS1003;56333;51.306;17.056;2024-02-14T06:28:29;33.20;16.30;
69224;PMS1003;56333;51.306;17.056;2024-02-14T06:29:57;40.30;18.70;
69224;PMS1003;56333;51.306;17.056;2024-02-14T06:31:26;36.50;26.00;
69224;PMS1003;56333;51.306;17.056;2024-02-14T06:32:55;36.60;25.80;
69224;PMS1003;56333;51.306;17.056;2024-02-14T06:34:26;40.40;17.70;
69224;PMS1003;56333;51.306;17.056;2024-02-14T06:35:55;42.40;17.40;
69224;PMS1003;56333;51.306;17.056;2024-02-14T06:37:24;37.10;16.90;
69224;PMS1003;56333;51.306;17.056;2024-02-14T06:38:52;41.80;18.60;
69224;PMS1003;56333;51.306;17.056;2024-02-14T06:40:21;35.50;26.20;
69224;PMS1003;56333;51.306;17.056;2024-02-14T06:41:50;36.10;27.70;
69224;PMS1003;56333;51.306;17.056;2024-02-14T06:43:19;35.00;26.00;
69224;PMS1003;56333;51.306;17.056;2024-02-14T06:44:47;40.90;17.40;
69224;PMS1003;56333;51.306;17.056;2024-02-14T06:46:16;35.50;26.50;
69224;PMS1003;56333;51.306;17.056;2024-02-14T06:47:45;28.60;13.70;
69224;PMS1003;56333;51.306;17.056;2024-02-14T06:49:13;34.50;16.10;
69224;PMS1003;56333;51.306;17.056;2024-02-14T06:50:44;37.30;16.50;
69224;PMS1003;56333;51.306;17.056;2024-02-14T06:52:12;36.80;27.30;
69224;PMS1003;56333;51.306;17.056;2024-02-14T06:53:41;33.90;25.70;
69224;PMS1003;56333;51.306;17.056;2024-02-14T06:55:10;40.30;19.30;
69224;PMS1003;56333;51.306;17.056;2024-02-14T06:56:39;36.30;25.60;
69224;PMS1003;56333;51.306;17.056;2024-02-14T06:58:07;41.20;17.60;
69224;PMS1003;56333;51.306;17.056;2024-02-14T06:59:36;26.90;12.90;
69224;PMS1003;56333;51.306;17.056;2024-02-14T07:01:05;29.80;22.20;
69224;PMS1003;56333;51.306;17.056;2024-02-14T07:02:33;29.10;22.00;
69224;PMS1003;56333;51.306;17.056;2024-02-14T07:04:02;28.40;21.40;
69224;PMS1003;56333;51.306;17.056;2024-02-14T07:05:31;27.80;20.60;
69224;PMS1003;56333;51.306;17.056;2024-02-14T07:07:00;28.30;11.80;
69224;PMS1003;56333;51.306;17.056;2024-02-14T07:08:29;23.70;10.30;
69224;PMS1003;56333;51.306;17.056;2024-02-14T07:09:57;29.20;21.30;
69224;PMS1003;56333;51.306;17.056;2024-02-14T07:11:26;29.70;20.70;
69224;PMS1003;56333;51.306;17.056;2024-02-14T07:12:54;28.00;21.00;
69224;PMS1003;56333;51.306;17.056;2024-02-14T07:14:23;29.60;20.30;
69224;PMS1003;56333;51.306;17.056;2024-02-14T07:15:51;31.10;20.50;
69224;PMS1003;56333;51.306;17.056;2024-02-14T07:17:20;30.50;20.90;
69224;PMS1003;56333;51.306;17.056;2024-02-14T07:18:49;28.60;11.20;
69224;PMS1003;56333;51.306;17.056;2024-02-14T07:20:18;30.80;20.50;
69224;PMS1003;56333;51.306;17.056;2024-02-14T07:21:46;27.50;20.20;
69224;PMS1003;56333;51.306;17.056;2024-02-14T07:23:15;29.90;13.90;
69224;PMS1003;56333;51.306;17.056;2024-02-14T07:24:43;21.60;10.90;
69224;PMS1003;56333;51.306;17.056;2024-02-14T07:26:12;30.80;21.10;
69224;PMS1003;56333;51.306;17.056;2024-02-14T07:27:41;26.10;20.70;
69224;PMS1003;56333;51.306;17.056;2024-02-14T07:29:10;27.90;20.90;
69224;PMS1003;56333;51.306;17.056;2024-02-14T07:30:38;28.30;14.00;
69224;PMS1003;56333;51.306;17.056;2024-02-14T07:32:08;33.00;12.60;
69224;PMS1003;56333;51.306;17.056;2024-02-14T07:33:36;28.30;12.60;
69224;PMS1003;56333;51.306;17.056;2024-02-14T07:35:08;26.40;19.30;
69224;PMS1003;56333;51.306;17.056;2024-02-14T07:36:38;30.00;21.40;
69224;PMS1003;56333;51.306;17.056;2024-02-14T07:38:11;31.20;22.70;
69224;PMS1003;56333;51.306;17.056;2024-02-14T07:39:40;31.10;23.00;
69224;PMS1003;56333;51.306;17.056;2024-02-14T07:41:08;32.10;14.50;
69224;PMS1003;56333;51.306;17.056;2024-02-14T07:42:37;28.60;21.40;
69224;PMS1003;56333;51.306;17.056;2024-02-14T07:44:05;28.20;21.20;
69224;PMS1003;56333;51.306;17.056;2024-02-14T07:45:34;24.20;12.30;
69224;PMS1003;56333;51.306;17.056;2024-02-14T07:47:02;33.00;21.70;
69224;PMS1003;56333;51.306;17.056;2024-02-14T07:48:31;29.40;21.90;
69224;PMS1003;56333;51.306;17.056;2024-02-14T07:50:00;27.60;13.00;
69224;PMS1003;56333;51.306;17.056;2024-02-14T07:51:29;30.60;22.10;
69224;PMS1003;56333;51.306;17.056;2024-02-14T07:53:02;28.90;12.50;
69224;PMS1003;56333;51.306;17.056;2024-02-14T07:54:32;33.90;24.50;
69224;PMS1003;56333;51.306;17.056;2024-02-14T07:56:00;34.40;24.90;
69224;PMS1003;56333;51.306;17.056;2024-02-14T07:57:29;30.70;23.70;
69224;PMS1003;56333;51.306;17.056;2024-02-14T07:58:58;43.30;23.40;
69224;PMS1003;56333;51.306;17.056;2024-02-14T08:00:26;45.00;24.00;
69224;PMS1003;56333;51.306;17.056;2024-02-14T08:01:55;30.90;23.70;
69224;PMS1003;56333;51.306;17.056;2024-02-14T08:03:24;27.10;20.90;
69224;PMS1003;56333;51.306;17.056;2024-02-14T08:04:52;30.50;22.30;
69224;PMS1003;56333;51.306;17.056;2024-02-14T08:06:21;48.30;36.90;
69224;PMS1003;56333;51.306;17.056;2024-02-14T08:07:50;42.40;31.50;
69224;PMS1003;56333;51.306;17.056;2024-02-14T08:09:18;34.40;24.20;
69224;PMS1003;56333;51.306;17.056;2024-02-14T08:10:47;19.60;9.20;
69224;PMS1003;56333;51.306;17.056;2024-02-14T08:12:16;30.80;22.40;
69224;PMS1003;56333;51.306;17.056;2024-02-14T08:13:44;33.00;23.90;
69224;PMS1003;56333;51.306;17.056;2024-02-14T08:15:13;34.30;25.50;
69224;PMS1003;56333;51.306;17.056;2024-02-14T08:16:42;31.40;23.20;
69224;PMS1003;56333;51.306;17.056;2024-02-14T08:18:11;32.20;23.20;
69224;PMS1003;56333;51.306;17.056;2024-02-14T08:19:40;32.70;24.00;
69224;PMS1003;56333;51.306;17.056;2024-02-14T08:21:09;30.70;14.30;
69224;PMS1003;56333;51.306;17.056;2024-02-14T08:22:38;30.30;22.70;
69224;PMS1003;56333;51.306;17.056;2024-02-14T08:24:07;33.60;23.90;
69224;PMS1003;56333;51.306;17.056;2024-02-14T08:25:36;32.40;23.40;
69224;PMS1003;56333;51.306;17.056;2024-02-14T08:27:06;32.20;22.60;
69224;PMS1003;56333;51.306;17.056;2024-02-14T08:28:34;31.40;23.00;
69224;PMS1003;56333;51.306;17.056;2024-02-14T08:30:03;32.30;22.80;
69224;PMS1003;56333;51.306;17.056;2024-02-14T08:31:34;22.90;10.70;
69224;PMS1003;56333;51.306;17.056;2024-02-14T08:33:02;29.30;11.50;
69224;PMS1003;56333;51.306;17.056;2024-02-14T08:34:31;32.60;23.70;
69224;PMS1003;56333;51.306;17.056;2024-02-14T08:35:59;33.50;23.30;
69224;PMS1003;56333;51.306;17.056;2024-02-14T08:37:28;30.40;13.80;
69224;PMS1003;56333;51.306;17.056;2024-02-14T08:38:57;31.10;23.20;
69224;PMS1003;56333;51.306;17.056;2024-02-14T08:40:26;32.60;23.10;
69224;PMS1003;56333;51.306;17.056;2024-02-14T08:41:55;32.00;23.00;
69224;PMS1003;56333;51.306;17.056;2024-02-14T08:43:24;33.90;23.20;
69224;PMS1003;56333;51.306;17.056;2024-02-14T08:44:54;29.40;13.00;
69224;PMS1003;56333;51.306;17.056;2024-02-14T08:46:22;32.80;24.50;
69224;PMS1003;56333;51.306;17.056;2024-02-14T08:47:51;33.20;23.00;
69224;PMS1003;56333;51.306;17.056;2024-02-14T08:49:19;33.70;24.00;
69224;PMS1003;56333;51.306;17.056;2024-02-14T08:50:48;30.70;14.50;
69224;PMS1003;56333;51.306;17.056;2024-02-14T08:52:16;32.70;23.00;
69224;PMS1003;56333;51.306;17.056;2024-02-14T08:53:45;28.80;21.60;